Nearby METAR Reports

 

KMTN - Baltimore/Martin, Maryland, USA
Distance from station: SSE 8mi, 13km
Updated: Sat, 25-Oct-2014 3:36am EDT
Clear
Clear
 Wind from calm
Wind: Calm
Temperature: 48°F , 9°C
Dew Point: 41°F , 5°C
Humidity: 76%
Barometer: 29.95 inHg , 1014.2 hPa
Clouds: Clear
Visibility: 10 miles , 16 km
2014/10/25 07:36 KMTN 250736Z AUTO 00000KT 10SM CLR 09/05 A2995 RMK AO2
KDMH - Baltimore/Dwntwn, Maryland, USA
Distance from station: SW 12mi, 19km
Updated: Sat, 25-Oct-2014 2:54am EDT

 
Temperature: 55°F , 13°C
Dew Point: 37°F , 3°C
Humidity: 51%
Barometer: 29.94 inHg , 1013.9 hPa
2014/10/25 06:54 KDMH 250654Z AUTO 13/03 A2994 RMK AO1 SLP137 T01280033
 
KBWI - Balto/Wash Intl, Maryland, USA
Distance from station: SSW 20mi, 33km
Updated: Sat, 25-Oct-2014 2:54am EDT
Clear
Clear
 Wind from W
Wind: W 5 mph , 7 km/h
Temperature: 46°F , 8°C
Wind Chill: 44°F , 7°C
Dew Point: 37°F , 3°C
Humidity: 71%
Barometer: 29.94 inHg , 1013.9 hPa
Clouds: Clear
Visibility: 10 miles , 16 km
2014/10/25 06:54 KBWI 250654Z 26004KT 10SM CLR 08/03 A2994 RMK AO2 SLP138 T00830033
KDMW - Carroll Cnty, Maryland, USA
Distance from station: WNW 30mi, 48km
Updated: Sat, 25-Oct-2014 3:40am EDT
Clear
Clear
 Wind from W
Wind: W 6 mph , 9 km/h
Temperature: 50°F , 10°C
Wind Chill: 48°F , 9°C
Dew Point: 37°F , 3°C
Humidity: 62%
Barometer: 29.94 inHg , 1013.9 hPa
Clouds: Clear
Visibility: 10 miles , 16 km
2014/10/25 07:40 KDMW 250740Z AUTO 27005KT 10SM CLR 10/03 A2994 RMK AO2
 
KNAK - Annapolis/Naval, Maryland, USA
Distance from station: S 30mi, 48km
Updated: Sat, 25-Oct-2014 2:54am EDT
Clear
Clear
 Wind from W
Wind: W 5 mph , 7 km/h
Temperature: 52°F , 11°C
Dew Point: 37°F , 3°C
Humidity: 58%
Barometer: 29.94 inHg , 1013.9 hPa
Clouds: Clear
Visibility: 10 miles , 16 km
2014/10/25 06:54 KNAK 250654Z AUTO 28004KT 10SM CLR 11/03 A2994 RMK AO2 SLP140 T01060033
KW29 - Stevensville, Maryland, USA
Distance from station: SSE 31mi, 50km
Updated: Sat, 25-Oct-2014 3:38am EDT

 Wind from NW
Wind: NW 6 mph , 9 km/h
Temperature: 54°F , 12°C
Dew Point: 39°F , 4°C
Humidity: 58%
Barometer: 29.94 inHg , 1013.9 hPa
Visibility: 10 miles , 16 km
2014/10/25 07:38 KW29 250738Z AUTO 31005KT 10SM 12/04 A2994 RMK AO1
 
KCGS - College Park, Maryland, USA
Distance from station: SW 38mi, 61km
Updated: Sat, 25-Oct-2014 3:35am EDT
Clear
Clear
 Wind from calm
Wind: Calm
Temperature: 45°F , 7°C
Dew Point: 41°F , 5°C
Humidity: 87%
Barometer: 29.95 inHg , 1014.2 hPa
Clouds: Clear
Visibility: 10 miles , 16 km
2014/10/25 07:35 KCGS 250735Z AUTO 00000KT 10SM CLR 07/05 A2995 RMK AO1
KGAI - Gaithersburg, Maryland, USA
Distance from station: WSW 40mi, 65km
Updated: Sat, 25-Oct-2014 3:35am EDT
Clear
Clear
 Wind from W
Wind: W 6 mph , 9 km/h
Temperature: 46°F , 8°C
Wind Chill: 43°F , 6°C
Dew Point: 36°F , 2°C
Humidity: 66%
Barometer: 29.99 inHg , 1015.6 hPa
Clouds: Clear
Visibility: 10 miles , 16 km
2014/10/25 07:35 KGAI 250735Z 27005KT 10SM CLR 08/02 A2999 RMK AO1
 
KTHV - York, Pennsylvania, USA
Distance from station: NNW 40mi, 65km
Updated: Sat, 25-Oct-2014 2:53am EDT
Clear
Clear
 Wind from calm
Wind: Calm
Temperature: 39°F , 4°C
Dew Point: 36°F , 2°C
Humidity: 87%
Barometer: 29.94 inHg , 1013.9 hPa
Clouds: Clear
Visibility: 10 miles , 16 km
2014/10/25 06:53 KTHV 250653Z AUTO 00000KT 10SM CLR 04/02 A2994 RMK AO2 SLP141 T00390017
KFDK - Frederick, Maryland, USA
Distance from station: W 47mi, 75km
Updated: Sat, 25-Oct-2014 3:35am EDT
Light snow, Clear
Light snow, Clear
 Wind from SW
Wind: SW 3 mph , 6 km/h
Temperature: 46°F , 8°C
Dew Point: 41°F , 5°C
Humidity: 82%
Barometer: 29.99 inHg , 1015.6 hPa
Summary: Light Snow
Clouds: Clear
Visibility: 10 miles , 16 km
2014/10/25 07:35 KFDK 250735Z AUTO 23003KT 10SM -SN CLR 08/05 A2999 RMK AO2
 
KESN - Easton/Newnam, Maryland, USA
Distance from station: SSE 48mi, 78km
Updated: Sat, 25-Oct-2014 3:52am EDT
Clear
Clear
 Wind from calm
Wind: Calm
Temperature: 50°F , 10°C
Dew Point: 43°F , 6°C
Humidity: 76%
Barometer: 29.97 inHg , 1014.9 hPa
Clouds: Clear
Visibility: 10 miles , 16 km
2014/10/25 07:52 KESN 250752Z AUTO 00000KT 10SM CLR 10/06 A2997 RMK AO2 T01040064
KDCA - Washington/Natl, Washington D.c., USA
Distance from station: SW 49mi, 79km
Updated: Sat, 25-Oct-2014 2:52am EDT
Clear
Clear
 Wind from NNE
Wind: NNE 3 mph , 6 km/h
Temperature: 55°F , 13°C
Dew Point: 41°F , 5°C
Humidity: 59%
Barometer: 29.97 inHg , 1014.9 hPa
Clouds: Clear
Visibility: 9 miles , 14 km
2014/10/25 06:52 KDCA 250652Z 03003KT 9SM CLR 13/05 A2997 RMK AO2 SLP147 T01280050 $
 
KLNS - Lancaster, Pennsylvania, USA
Distance from station: N 49mi, 79km
Updated: Sat, 25-Oct-2014 2:53am EDT
Clear
Clear
 Wind from W
Wind: W 5 mph , 7 km/h
Temperature: 46°F , 8°C
Wind Chill: 44°F , 7°C
Dew Point: 37°F , 3°C
Humidity: 71%
Barometer: 29.93 inHg , 1013.5 hPa
Clouds: Clear
Visibility: 10 miles , 16 km
2014/10/25 06:53 KLNS 250653Z AUTO 27004KT 10SM CLR 08/03 A2993 RMK AO2 SLP133 T00780033
KILG - Wilmington, Delaware, USA
Distance from station: ENE 50mi, 81km
Updated: Sat, 25-Oct-2014 2:51am EDT
Clear
Clear
 Wind from NW
Wind: NW 6 mph , 9 km/h
Temperature: 50°F , 10°C
Wind Chill: 48°F , 9°C
Dew Point: 39°F , 4°C
Humidity: 67%
Barometer: 29.92 inHg , 1013.2 hPa
Clouds: Clear
Visibility: 10 miles , 16 km
2014/10/25 06:51 KILG 250651Z 31005KT 10SM CLR 10/04 A2992 RMK AO2 SLP131 T01000039